Woody Point, Canada
Current Conditions -  °F | °C
As of 7:00 PM on Tuesday 25 Nov 2014 (Local Time) from CYDF Reporting Station
Overcast Overcast  
Wind Chill: 50°   Ceiling: 20000
Heat Index: 50°   Visibility: 15mi
Dew Point: 41°   Wind: 17mph
Humidity: 71%   Direction: 250°WSW
Pressure: 29.56"   Gusts: 26mph
Location:  49.5°N, 57.93°W
Report Text: CYDF 252200Z 25015G23KT 15SM FEW030 SCT120 OVC200 10/05 A2956 RMK SC2AC2CI4 SLP011
Loading
Personal Weather Stations






























Interactive Weather Map New forecast layout! Learn more

10-Day Weather Forecast

Advertisements
Track Severe Weather on mobile